Time;durP1;ratioP1;P1;durP2;ratioP2;P2;SDS_P1;SDS_P2;PMS_P1;PMS_P2;Temp;Humidity;BMP_temperature;BMP_pressure;BME280_temperature;BME280_humidity;BME280_pressure;Samples;Min_cycle;Max_cycle;Signal;HPM_P1;HPM_P2
2024/01/21 03:26:02;;;;;;;;;;;;;;;-3.69;70.06;101104.94;1088330;54;3655;31
2024/01/21 03:27:03;;;;;;;;;;;;;;;-3.73;70.08;101100.63;1088879;54;1015;-84
2024/01/21 03:28:07;;;;;;;;;;;;;;;-3.89;70.07;101099.19;1088646;47;1130;-82
2024/01/21 03:29:07;;;;;;;;;;;;;;;-3.95;70.16;101085.31;1088892;46;1853;-85
2024/01/21 03:38:18;;;;;;;;;;;;;;;-3.95;70.25;101079.25;1089002;54;700;-82
2024/01/21 03:48:18;;;;;;;;;;;;;;;-3.53;69.11;101088.94;1089206;54;1126;-82
2024/01/21 03:49:19;;;;;;;;;;;;;;;-3.53;69.18;101086.34;1088897;54;1838;-82
2024/01/21 03:50:22;;;;;;;;;;;;;;;-3.54;68.91;101074.16;1088954;54;1351;-82
2024/01/21 03:51:23;;;;;;;;;;;;;;;-3.50;68.76;101070.59;1088920;46;1036;-82
2024/01/21 03:52:26;;;;;;;;;;;;;;;-3.58;68.72;101077.69;1088456;54;1101;-81
2024/01/21 03:53:27;;;;;;;;;;;;;;;-3.59;68.86;101071.63;1088754;46;933;-81
2024/01/21 03:54:30;;;;;;;;;;;;;;;-3.57;68.84;101074.19;1087977;54;1404;-81
2024/01/21 03:55:31;;;;;;;;;;;;;;;-3.55;68.46;101067.19;1088030;54;1095;-81
2024/01/21 03:56:40;;;;;;;;;;;;;;;-3.54;68.57;101071.53;1088656;54;1069;-79
2024/01/21 03:57:41;;;;;;;;;;;;;;;-3.54;68.47;101069.78;1088639;54;1199;-82
2024/01/21 03:58:45;;;;;;;;;;;;;;;-3.51;68.50;101064.50;1088719;46;1086;-82
2024/01/21 03:59:46;;;;;;;;;;;;;;;-3.47;68.39;101068.78;1088558;47;1019;-80
2024/01/21 04:00:49;;;;;;;;;;;;;;;-3.43;68.59;101071.31;1088701;54;973;-82
2024/01/21 04:01:50;;;;;;;;;;;;;;;-3.50;68.24;101075.84;1088544;47;974;-85
2024/01/21 04:02:53;;;;;;;;;;;;;;;-3.54;68.41;101071.53;1088673;54;1027;-83
2024/01/21 04:03:56;;;;;;;;;;;;;;;-3.58;68.46;101067.25;1088620;47;1096;-84
2024/01/21 04:04:59;;;;;;;;;;;;;;;-3.55;68.70;101068.06;1088743;54;1284;-83
2024/01/21 04:06:00;;;;;;;;;;;;;;;-3.52;68.44;101075.84;1088757;54;986;-82
2024/01/21 04:13:47;;;;;;;;;;;;;;;-3.63;67.94;101049.03;1088990;54;736;-85
2024/01/21 04:20:08;;;;;;;;;;;;;;;-3.56;68.29;101047.16;1088975;54;689;-85
2024/01/21 04:23:17;;;;;;;;;;;;;;;-3.56;68.21;101049.78;1088857;54;796;-83
2024/01/21 04:44:46;;;;;;;;;;;;;;;-3.74;68.33;101040.56;1088501;46;1212;-84
2024/01/21 04:45:52;;;;;;;;;;;;;;;-3.87;68.71;101045.16;1088639;46;1126;-82
2024/01/21 04:46:56;;;;;;;;;;;;;;;-3.97;68.80;101044.44;1088337;47;996;-84
2024/01/21 04:47:56;;;;;;;;;;;;;;;-3.93;68.67;101046.97;1088441;47;932;-83
2024/01/21 04:50:22;;;;;;;;;;;;;;;-3.87;68.79;101047.78;1088458;46;1839;-85
2024/01/21 04:51:22;;;;;;;;;;;;;;;-3.84;68.53;101047.69;1088527;54;949;-84
2024/01/21 04:52:23;;;;;;;;;;;;;;;-3.81;68.51;101051.09;1088372;47;1150;-86
2024/01/21 04:53:26;;;;;;;;;;;;;;;-3.75;68.51;101050.13;1088526;54;994;-86
2024/01/21 04:54:27;;;;;;;;;;;;;;;-3.65;68.30;101051.69;1088504;54;1251;-85
2024/01/21 04:55:30;;;;;;;;;;;;;;;-3.61;68.19;101048.13;1088541;54;986;-84
2024/01/21 04:56:31;;;;;;;;;;;;;;;-3.54;67.91;101050.63;1088563;47;1119;-85
2024/01/21 04:57:34;;;;;;;;;;;;;;;-3.55;67.77;101043.66;1088407;47;1000;-83
2024/01/21 04:58:37;;;;;;;;;;;;;;;-3.64;67.96;101053.41;1088474;47;1055;-85
2024/01/21 04:59:41;;;;;;;;;;;;;;;-3.64;68.00;101053.41;1088455;54;911;-85
2024/01/21 05:00:41;;;;;;;;;;;;;;;-3.59;67.84;101047.25;1088450;54;932;-84
2024/01/21 05:01:50;;;;;;;;;;;;;;;-3.60;67.70;101054.22;1088499;54;885;-85
2024/01/21 05:02:57;;;;;;;;;;;;;;;-3.55;67.64;101051.50;1088461;54;842;-85
2024/01/21 05:04:00;;;;;;;;;;;;;;;-3.61;67.86;101058.59;1088529;47;1472;-86
2024/01/21 05:05:01;;;;;;;;;;;;;;;-3.74;67.97;101057.09;1088511;54;1178;-85
2024/01/21 05:06:04;;;;;;;;;;;;;;;-3.74;67.96;101061.47;1088458;54;888;-85
2024/01/21 05:07:05;;;;;;;;;;;;;;;-3.76;67.96;101062.34;1088477;54;1391;-84
2024/01/21 05:08:08;;;;;;;;;;;;;;;-3.82;67.93;101059.00;1088388;54;991;-85
2024/01/21 05:09:10;;;;;;;;;;;;;;;-3.87;67.85;101066.06;1088562;54;1411;-84
2024/01/21 05:10:14;;;;;;;;;;;;;;;-3.86;67.86;101078.22;1088227;54;1848;-87
2024/01/21 05:11:15;;;;;;;;;;;;;;;-3.76;67.67;101079.78;1088475;54;1006;-83
2024/01/21 05:29:38;;;;;;;;;;;;;;;-3.84;67.53;101100.84;1088657;54;1840;-84
2024/01/21 05:30:38;;;;;;;;;;;;;;;-3.77;67.44;101109.41;1088625;47;979;-84
2024/01/21 05:31:42;;;;;;;;;;;;;;;-3.75;67.51;101105.03;1088385;47;1014;-85
2024/01/21 05:32:46;;;;;;;;;;;;;;;-3.70;67.44;101105.81;1088530;47;954;-86
2024/01/21 05:33:49;;;;;;;;;;;;;;;-3.72;67.33;101111.94;1088487;54;1005;-84
2024/01/21 05:34:51;;;;;;;;;;;;;;;-3.69;67.26;101107.53;1088488;54;1336;-84
2024/01/21 05:35:54;;;;;;;;;;;;;;;-3.71;67.17;101104.09;1088403;54;930;-85
2024/01/21 05:36:55;;;;;;;;;;;;;;;-3.74;67.17;101111.13;1088465;54;1016;-85
2024/01/21 05:37:58;;;;;;;;;;;;;;;-3.74;67.20;101113.75;1088368;54;990;-83
2024/01/21 05:38:59;;;;;;;;;;;;;;;-3.77;67.69;101119.88;1088332;54;914;-84
2024/01/21 05:40:02;;;;;;;;;;;;;;;-3.85;67.80;101124.38;1088430;54;982;-86
2024/01/21 05:41:03;;;;;;;;;;;;;;;-3.95;68.17;101121.06;1088541;54;962;-85
2024/01/21 05:42:09;;;;;;;;;;;;;;;-4.02;68.24;101127.28;1088491;54;981;-84
2024/01/21 05:43:10;;;;;;;;;;;;;;;-4.01;68.43;101122.03;1088348;54;933;-84
2024/01/21 05:44:13;;;;;;;;;;;;;;;-3.87;68.04;101123.56;1088255;47;1355;-85
2024/01/21 05:45:16;;;;;;;;;;;;;;;-3.84;67.99;101129.59;1088305;47;974;-83
2024/01/21 05:46:19;;;;;;;;;;;;;;;-3.89;67.75;101127.94;1088288;54;1008;-85
2024/01/21 05:47:21;;;;;;;;;;;;;;;-3.82;67.61;101127.78;1088589;47;837;-86
2024/01/21 05:59:29;;;;;;;;;;;;;;;-4.33;67.60;101143.41;1089059;54;644;-84
2024/01/21 06:00:32;;;;;;;;;;;;;;;-4.28;67.36;101144.19;1088636;47;1039;-86
2024/01/21 06:01:34;;;;;;;;;;;;;;;-4.20;67.11;101144.94;1088684;47;1368;-85
2024/01/21 06:02:37;;;;;;;;;;;;;;;-4.25;66.87;101145.00;1088743;54;997;-85
2024/01/21 06:03:39;;;;;;;;;;;;;;;-4.25;66.87;101149.38;1088625;54;962;-85
2024/01/21 06:04:40;;;;;;;;;;;;;;;-4.25;66.72;101150.25;1088627;46;1317;-84
2024/01/21 06:05:43;;;;;;;;;;;;;;;-4.19;66.75;101146.66;1088699;47;888;-84
2024/01/21 06:06:45;;;;;;;;;;;;;;;-4.15;66.65;101148.38;1088068;54;1019;-80
2024/01/21 06:07:46;;;;;;;;;;;;;;;-4.16;66.33;101151.00;1088433;47;1181;-83
2024/01/21 06:08:51;;;;;;;;;;;;;;;-4.24;66.44;101138.91;1088830;46;935;-85
2024/01/21 06:09:52;;;;;;;;;;;;;;;-4.18;66.47;101137.97;1088623;47;1851;-85
2024/01/21 06:10:55;;;;;;;;;;;;;;;-4.24;66.38;101135.44;1088693;54;995;-85
2024/01/21 06:11:56;;;;;;;;;;;;;;;-4.18;66.35;101127.50;1088687;54;855;-84
2024/01/21 06:25:41;;;;;;;;;;;;;;;-3.99;66.68;101111.53;1089020;54;725;-85
2024/01/21 06:26:41;;;;;;;;;;;;;;;-3.99;66.86;101109.81;1088976;54;932;-84
2024/01/21 06:27:45;;;;;;;;;;;;;;;-3.95;66.86;101108.84;1089018;54;934;-85
2024/01/21 06:28:45;;;;;;;;;;;;;;;-3.98;66.89;101111.53;1088966;46;939;-82
2024/01/21 06:29:50;;;;;;;;;;;;;;;-3.96;67.09;101114.94;1088726;54;1852;-84
2024/01/21 06:37:09;;;;;;;;;;;;;;;-4.10;67.94;101098.66;1088950;54;713;-83
2024/01/21 06:38:16;;;;;;;;;;;;;;;-4.03;67.86;101105.50;1089028;54;946;-83
2024/01/21 06:40:22;;;;;;;;;;;;;;;-4.01;67.80;101103.72;1089032;54;721;-85
2024/01/21 06:41:26;;;;;;;;;;;;;;;-3.94;67.84;101100.13;1088229;54;933;-84
2024/01/21 06:42:30;;;;;;;;;;;;;;;-3.86;67.77;101100.00;1088516;54;966;-82
2024/01/21 06:43:30;;;;;;;;;;;;;;;-3.80;67.62;101099.88;1089053;54;930;-83
2024/01/21 06:44:35;;;;;;;;;;;;;;;-3.84;67.68;101095.63;1088937;54;1347;-86
2024/01/21 06:45:35;;;;;;;;;;;;;;;-3.79;67.77;101092.91;1088896;47;960;-85
2024/01/21 06:46:39;;;;;;;;;;;;;;;-3.75;67.54;101094.56;1088910;46;998;-82
2024/01/21 06:47:46;;;;;;;;;;;;;;;-3.73;67.59;101099.78;1088814;47;1449;-83
2024/01/21 06:48:49;;;;;;;;;;;;;;;-3.73;67.82;101097.19;1088621;47;983;-84
2024/01/21 06:49:50;;;;;;;;;;;;;;;-3.67;67.66;101097.91;1088749;46;943;-83
2024/01/21 06:50:53;;;;;;;;;;;;;;;-3.66;67.75;101091.78;1088488;47;1971;-84
2024/01/21 06:51:54;;;;;;;;;;;;;;;-3.65;67.52;101095.28;1088526;47;972;-83
2024/01/21 06:52:57;;;;;;;;;;;;;;;-3.68;67.73;101090.94;1088673;54;1028;-83
2024/01/21 06:53:59;;;;;;;;;;;;;;;-3.67;67.75;101091.81;1088663;54;1027;-83
2024/01/21 06:55:09;;;;;;;;;;;;;;;-3.68;67.81;101088.34;1088728;46;986;-84
2024/01/21 06:56:10;;;;;;;;;;;;;;;-3.68;67.76;101087.47;1088771;54;972;-81
2024/01/21 06:58:18;;;;;;;;;;;;;;;-3.65;67.77;101088.28;1089322;54;601;-83
2024/01/21 06:59:19;;;;;;;;;;;;;;;-3.72;67.89;101091.91;1088992;54;1093;-84
2024/01/21 07:00:22;;;;;;;;;;;;;;;-3.75;67.72;101091.94;1088835;46;851;-84
2024/01/21 07:01:23;;;;;;;;;;;;;;;-3.79;67.72;101090.31;1088714;46;919;-84
2024/01/21 07:02:26;;;;;;;;;;;;;;;-3.70;67.62;101090.13;1088777;54;938;-83
2024/01/21 07:03:27;;;;;;;;;;;;;;;-3.62;67.55;101087.34;1088853;54;989;-83
2024/01/21 07:04:31;;;;;;;;;;;;;;;-3.67;67.44;101081.38;1088632;47;1339;-83
2024/01/21 07:05:31;;;;;;;;;;;;;;;-3.73;67.52;101086.72;1088815;54;1097;-82
2024/01/21 07:06:34;;;;;;;;;;;;;;;-3.73;67.64;101084.94;1088799;54;970;-83
2024/01/21 07:07:35;;;;;;;;;;;;;;;-3.85;67.66;101086.03;1088657;46;1097;-83
2024/01/21 07:08:42;;;;;;;;;;;;;;;-3.85;67.84;101090.41;1088678;54;995;-81
2024/01/21 07:09:43;;;;;;;;;;;;;;;-3.89;67.85;101093.97;1088548;54;906;-83
2024/01/21 07:10:54;;;;;;;;;;;;;;;-3.90;67.97;101089.63;1088549;47;1846;-81
2024/01/21 07:11:55;;;;;;;;;;;;;;;-3.86;67.85;101093.88;1088229;47;929;-79
2024/01/21 07:12:56;;;;;;;;;;;;;;;-3.79;67.74;101095.53;1088141;54;1524;-79
2024/01/21 07:14:02;;;;;;;;;;;;;;;-3.76;67.83;101092.84;1088416;54;1088;-80
2024/01/21 07:15:05;;;;;;;;;;;;;;;-3.75;67.77;101102.41;1088661;46;955;-82
2024/01/21 07:16:08;;;;;;;;;;;;;;;-3.76;67.69;101100.69;1088625;46;1573;-81
2024/01/21 07:17:10;;;;;;;;;;;;;;;-3.75;67.64;101110.25;1088614;47;1138;-83
2024/01/21 07:18:21;;;;;;;;;;;;;;;-3.74;67.66;101105.91;1088582;54;1220;-82
2024/01/21 07:19:22;;;;;;;;;;;;;;;-3.76;67.84;101118.97;1088160;47;1004;-81
2024/01/21 07:20:26;;;;;;;;;;;;;;;-3.72;67.63;101109.31;1087943;47;1131;-81
2024/01/21 07:21:26;;;;;;;;;;;;;;;-3.80;67.65;101115.56;1086333;47;1106;-81
2024/01/21 07:22:29;;;;;;;;;;;;;;;-3.82;67.68;101116.47;1086986;47;1114;-81
2024/01/21 07:23:31;;;;;;;;;;;;;;;-3.82;67.69;101121.72;1087096;54;1163;-80
2024/01/21 07:24:34;;;;;;;;;;;;;;;-3.80;67.70;101122.56;1086982;47;1364;-78
2024/01/21 07:25:35;;;;;;;;;;;;;;;-3.79;67.97;101122.50;1086780;54;1090;-79
2024/01/21 07:26:38;;;;;;;;;;;;;;;-3.79;67.75;101129.50;1087049;54;1205;-79
2024/01/21 07:27:39;;;;;;;;;;;;;;;-3.86;67.90;101133.97;1087005;47;1182;-79
2024/01/21 07:28:42;;;;;;;;;;;;;;;-3.86;67.81;101135.69;1087554;47;1083;-82
2024/01/21 07:29:46;;;;;;;;;;;;;;;-3.82;68.16;101124.31;1088501;47;1011;-82
2024/01/21 07:30:49;;;;;;;;;;;;;;;-3.84;68.08;101133.94;1088446;47;1924;-82
2024/01/21 07:31:50;;;;;;;;;;;;;;;-3.87;67.91;101128.78;1088573;54;1114;-86
2024/01/21 07:32:54;;;;;;;;;;;;;;;-3.94;67.99;101126.25;1088509;47;979;-81
2024/01/21 07:33:54;;;;;;;;;;;;;;;-3.87;67.67;101128.78;1088515;54;1191;-82
